createdAt,value
2023-01-28T00:01:42.211Z,55.70
2023-01-28T00:06:46.409Z,54.10
2023-01-28T00:11:50.240Z,60.70
2023-01-28T00:16:54.155Z,51.90
2023-01-28T00:21:57.997Z,49.50
2023-01-28T00:27:01.812Z,47.70
2023-01-28T00:32:05.847Z,43.20
2023-01-28T00:37:10.098Z,47.00
2023-01-28T00:42:13.830Z,53.20
2023-01-28T00:47:17.692Z,56.40
2023-01-28T00:52:22.917Z,54.50
2023-01-28T00:57:26.932Z,51.60
2023-01-28T01:02:32.578Z,54.30
2023-01-28T01:07:42.333Z,49.40
2023-01-28T01:12:48.044Z,45.10
2023-01-28T01:17:52.099Z,38.50
2023-01-28T01:22:57.030Z,49.90
2023-01-28T01:28:01.882Z,42.50
2023-01-28T01:33:05.690Z,47.30
2023-01-28T01:38:09.513Z,50.50
2023-01-28T01:43:18.602Z,49.50
2023-01-28T01:48:34.490Z,47.90
2023-01-28T01:53:42.082Z,45.30
2023-01-28T01:58:49.377Z,44.60
2023-01-28T02:04:10.022Z,41.90
2023-01-28T02:09:30.266Z,42.30
2023-01-28T02:14:37.490Z,43.30
2023-01-28T02:19:53.437Z,45.70
2023-01-28T02:25:21.849Z,42.90
2023-01-28T02:30:30.677Z,36.20
2023-01-28T02:35:47.721Z,36.90
2023-01-28T02:41:07.452Z,42.30
2023-01-28T02:46:52.016Z,40.60
2023-01-28T02:52:46.145Z,41.00
2023-01-28T02:58:00.891Z,38.10
2023-01-28T03:03:17.941Z,35.00
2023-01-28T03:08:40.938Z,31.20
2023-01-28T03:14:04.299Z,35.00
2023-01-28T03:19:28.151Z,38.90
2023-01-28T03:24:52.990Z,38.10
2023-01-28T03:30:19.397Z,33.70
2023-01-28T03:35:42.959Z,40.50
2023-01-28T03:41:12.196Z,38.30
2023-01-28T03:46:16.451Z,34.80
2023-01-28T03:51:21.011Z,36.90
2023-01-28T03:56:27.237Z,34.80
2023-01-28T04:01:31.597Z,39.20
2023-01-28T04:06:37.369Z,32.50
2023-01-28T04:12:04.650Z,36.00
2023-01-28T04:17:13.267Z,38.90
2023-01-28T04:22:18.030Z,40.40
2023-01-28T04:27:22.877Z,39.60
2023-01-28T04:32:28.430Z,42.50
2023-01-28T04:37:58.535Z,37.30
2023-01-28T04:43:21.089Z,42.20
2023-01-28T04:48:45.112Z,48.20
2023-01-28T04:54:07.851Z,47.40
2023-01-28T04:59:13.339Z,47.90
2023-01-28T05:04:17.709Z,49.00
2023-01-28T05:09:21.690Z,44.90
2023-01-28T05:14:28.918Z,44.00
2023-01-28T05:19:44.175Z,46.50
2023-01-28T05:24:55.836Z,50.10
2023-01-28T05:30:00.808Z,45.70
2023-01-28T05:35:05.107Z,45.40
2023-01-28T05:40:10.391Z,51.00
2023-01-28T05:45:14.888Z,47.60
2023-01-28T05:50:42.265Z,47.00
2023-01-28T05:55:54.274Z,70.60
2023-01-28T06:01:00.442Z,44.50
2023-01-28T06:06:08.570Z,50.20
2023-01-28T06:11:13.130Z,49.00
2023-01-28T06:16:17.944Z,42.80
2023-01-28T06:21:35.498Z,44.10
2023-01-28T06:26:40.231Z,46.50
2023-01-28T06:31:44.069Z,42.20
2023-01-28T06:36:48.529Z,46.50
2023-01-28T06:41:52.349Z,42.90
2023-01-28T06:46:56.157Z,44.00
2023-01-28T06:52:00.114Z,39.30
2023-01-28T06:57:03.830Z,39.80
2023-01-28T07:02:11.692Z,37.60
2023-01-28T07:07:15.433Z,47.00
2023-01-28T07:12:19.136Z,37.70
2023-01-28T07:17:22.960Z,37.20
2023-01-28T07:22:26.772Z,38.50
2023-01-28T07:27:30.513Z,38.00
2023-01-28T07:32:34.369Z,43.70
2023-01-28T07:37:39.094Z,40.60
2023-01-28T07:42:42.909Z,35.70
2023-01-28T07:48:02.877Z,38.10
2023-01-28T07:53:08.718Z,41.40
2023-01-28T07:58:13.475Z,45.90
2023-01-28T08:03:19.919Z,40.00
2023-01-28T08:08:25.422Z,41.10
2023-01-28T08:13:30.189Z,48.70
2023-01-28T08:18:33.949Z,49.20
2023-01-28T08:23:37.690Z,43.90
2023-01-28T08:28:44.653Z,42.40
2023-01-28T08:34:26.314Z,42.60
2023-01-28T08:39:38.110Z,41.00
2023-01-28T08:44:42.389Z,44.60
2023-01-28T08:49:49.848Z,40.70
2023-01-28T08:54:53.686Z,43.40
2023-01-28T08:59:57.654Z,41.80
2023-01-28T09:05:01.500Z,40.00
2023-01-28T09:10:06.561Z,38.40
2023-01-28T09:15:13.233Z,40.00
2023-01-28T09:20:17.865Z,35.90
2023-01-28T09:25:22.174Z,41.30
2023-01-28T09:30:32.201Z,37.20
2023-01-28T09:35:37.121Z,32.80
2023-01-28T09:40:43.716Z,34.90
2023-01-28T09:45:51.246Z,31.10
2023-01-28T09:50:55.475Z,31.20
2023-01-28T09:56:05.312Z,31.00
2023-01-28T10:01:12.070Z,32.40
2023-01-28T10:06:51.335Z,34.70
2023-01-28T10:12:39.962Z,28.90
2023-01-28T10:18:15.710Z,30.30
2023-01-28T10:24:02.522Z,22.80
2023-01-28T10:29:18.760Z,28.50
2023-01-28T10:40:27.117Z,22.40
2023-01-28T10:45:37.040Z,25.40
2023-01-28T10:50:57.203Z,23.80
2023-01-28T10:56:12.192Z,23.10
2023-01-28T11:01:16.127Z,23.40
2023-01-28T11:06:31.032Z,27.30
2023-01-28T11:11:34.931Z,23.20
2023-01-28T11:16:41.657Z,24.80
2023-01-28T11:21:51.368Z,25.20
2023-01-28T11:27:18.458Z,19.00
2023-01-28T11:32:36.446Z,16.10
2023-01-28T11:38:13.643Z,21.90
2023-01-28T11:43:26.525Z,16.10
2023-01-28T11:48:47.813Z,14.60
2023-01-28T11:54:16.652Z,16.30
2023-01-28T12:00:12.448Z,13.90
2023-01-28T12:05:30.302Z,15.40
2023-01-28T12:11:19.087Z,14.30
2023-01-28T12:16:32.095Z,13.90
2023-01-28T12:21:54.181Z,11.50
2023-01-28T12:33:33.355Z,14.50
2023-01-28T12:38:57.882Z,16.10
2023-01-28T12:44:07.883Z,19.10
2023-01-28T12:49:22.037Z,20.20
2023-01-28T12:54:57.521Z,20.20
2023-01-28T13:00:42.603Z,18.50
2023-01-28T13:05:52.380Z,17.50
2023-01-28T13:10:59.535Z,13.20
2023-01-28T13:16:05.077Z,16.10
2023-01-28T13:21:16.240Z,13.20
2023-01-28T13:26:49.590Z,13.90
2023-01-28T13:31:57.023Z,14.40
2023-01-28T13:37:29.668Z,13.20
2023-01-28T13:42:36.455Z,13.20
2023-01-28T13:47:43.529Z,14.30
2023-01-28T13:53:04.749Z,14.30
2023-01-28T13:58:32.452Z,13.60
2023-01-28T14:04:15.448Z,13.30
2023-01-28T14:09:56.647Z,11.10
2023-01-28T14:15:46.271Z,10.60
2023-01-28T14:20:56.563Z,9.20
2023-01-28T14:26:39.590Z,11.60
2023-01-28T14:36:51.037Z,7.10
2023-01-28T14:41:57.067Z,7.40
2023-01-28T14:47:31.284Z,8.40
2023-01-28T14:53:14.393Z,9.00
2023-01-28T14:58:23.547Z,7.10
2023-01-28T15:03:29.193Z,7.70
2023-01-28T15:08:34.111Z,8.10
2023-01-28T15:13:45.867Z,9.70
2023-01-28T15:18:51.442Z,9.00
2023-01-28T15:23:59.712Z,9.70
2023-01-28T15:29:03.946Z,9.20
2023-01-28T15:34:19.901Z,8.80
2023-01-28T15:39:25.783Z,11.80
2023-01-28T15:44:35.612Z,8.00
2023-01-28T15:49:58.699Z,8.40
2023-01-28T15:55:43.026Z,10.80
2023-01-28T16:00:49.655Z,10.90
2023-01-28T16:06:03.013Z,12.10
2023-01-28T16:11:10.632Z,11.90
2023-01-28T16:16:16.235Z,13.60
2023-01-28T16:21:25.031Z,14.80
2023-01-28T16:26:35.064Z,12.00
2023-01-28T16:31:42.296Z,12.50
2023-01-28T16:36:52.064Z,9.70
2023-01-28T16:41:58.171Z,9.80
2023-01-28T16:47:05.892Z,12.70
2023-01-28T16:52:14.927Z,9.90
2023-01-28T16:57:22.993Z,8.00
2023-01-28T17:02:31.253Z,7.20
2023-01-28T17:07:44.457Z,5.40
2023-01-28T17:12:49.654Z,8.20
2023-01-28T17:17:56.439Z,9.10
2023-01-28T17:23:00.735Z,9.30
2023-01-28T17:28:07.176Z,12.20
2023-01-28T17:33:13.655Z,15.00
2023-01-28T17:38:20.143Z,12.60
2023-01-28T17:43:25.574Z,12.40
2023-01-28T17:48:29.925Z,12.10
2023-01-28T17:53:43.585Z,13.70
2023-01-28T17:58:53.017Z,12.00
2023-01-28T18:03:58.571Z,12.10
2023-01-28T18:09:05.510Z,9.60
2023-01-28T18:14:10.053Z,13.70
2023-01-28T18:19:14.543Z,11.70
2023-01-28T18:24:19.154Z,12.10
2023-01-28T18:29:24.833Z,15.10
2023-01-28T18:34:32.383Z,15.40
2023-01-28T18:39:38.420Z,16.60
2023-01-28T18:44:44.973Z,16.70
2023-01-28T18:49:49.133Z,12.50
2023-01-28T18:54:53.525Z,15.10
2023-01-28T18:59:58.706Z,8.60
2023-01-28T19:05:30.747Z,7.20
2023-01-28T19:10:43.015Z,5.50
2023-01-28T19:15:53.767Z,8.00
2023-01-28T19:21:06.441Z,4.60
2023-01-28T19:26:34.156Z,5.50
2023-01-28T19:32:04.988Z,5.10
2023-01-28T19:37:23.439Z,7.30
2023-01-28T19:42:37.206Z,5.20
2023-01-28T19:47:43.071Z,7.40
2023-01-28T19:52:51.616Z,6.80
2023-01-28T19:58:04.989Z,6.70
2023-01-28T20:03:36.516Z,6.80
2023-01-28T20:09:57.334Z,6.10
2023-01-28T20:15:28.556Z,6.10
2023-01-28T20:20:51.955Z,6.70
2023-01-28T20:26:05.415Z,12.30
2023-01-28T20:31:14.998Z,7.70
2023-01-28T20:36:44.328Z,8.50
2023-01-28T20:41:57.358Z,7.40
2023-01-28T20:47:04.584Z,7.80
2023-01-28T20:52:13.183Z,7.50
2023-01-28T20:57:26.544Z,6.70
2023-01-28T21:02:31.782Z,7.20
2023-01-28T21:07:35.802Z,6.00
2023-01-28T21:12:44.241Z,8.10
2023-01-28T21:17:54.734Z,7.00
2023-01-28T21:23:03.766Z,9.90
2023-01-28T21:28:12.665Z,27.30
2023-01-28T21:33:21.829Z,12.40
2023-01-28T21:38:26.875Z,10.30
2023-01-28T21:43:42.076Z,10.30
2023-01-28T21:48:50.339Z,10.00
2023-01-28T21:53:57.564Z,10.00
2023-01-28T21:59:24.344Z,13.50
2023-01-28T22:04:35.766Z,11.50
2023-01-28T22:09:40.760Z,14.50
2023-01-28T22:14:48.122Z,12.90
2023-01-28T22:19:53.084Z,12.90
2023-01-28T22:24:57.142Z,13.20
2023-01-28T22:30:31.136Z,15.60
2023-01-28T22:35:57.874Z,11.50
2023-01-28T22:54:09.466Z,13.20
2023-01-28T23:00:36.305Z,15.10
2023-01-28T23:06:48.008Z,12.20
2023-01-28T23:12:54.610Z,11.90
2023-01-28T23:19:02.459Z,12.20
2023-01-28T23:24:58.636Z,12.00
2023-01-28T23:31:14.935Z,10.60
2023-01-28T23:36:49.048Z,8.80
2023-01-28T23:43:17.903Z,11.70
2023-01-28T23:49:23.176Z,7.60
2023-01-28T23:55:48.995Z,14.10
